OMSJ/SHJ METAR and TAF weather

Enter ICAO airport designator
Station Type Date Time Source
OMSJ METAR 2022/08/16 20:00 UTC NOAA

OMSJ 162000Z 03002KT CAVOK 33/25 Q0999 NOSIG


Station Type Date Time Source
OMSJ Decoded METAR 2022/08/16 20:00 UTC NOAA

Sharjah International Airport, United Arab Emirates (OMSJ) 25-20N 055-31E 33M
Aug 16, 2022 - 04:00 PM EDT / 2022.08.16 2000 UTC
Wind: from the NNE (030 degrees) at 2 MPH (2 KT):0
Visibility: greater than 7 mile(s):0
Temperature: 91 F (33 C)
Heat index: 103.5 F (39.7 C):1
Dew Point: 77 F (25 C)
Relative Humidity: 62%
Pressure (altimeter): 29.50 in. Hg (0999 hPa)
ob: OMSJ 162000Z 03002KT CAVOK 33/25 Q0999 NOSIG
cycle: 20

Station Type Date Time Source
OMSJ TAF 2022/08/16 18:05 UTC NOAA

TAF OMSJ 161700Z 1618/1800 12007KT CAVOK
BECMG 1708/1710 34014KT
BECMG 1717/1719 05005KT

Example: see airport list